• Join FlightAware (Why Join?)
  • Login
  • US Flag 
10:39PM EDT


 

Airport Tracker/Info


-or-


 

Live Flight TrackerFlight Track Log ✈ CSN3203 ✈ 14-Apr-2013 ✈ ZGGG / CAN - ZLXY / XIY

Flight Track Log - Related Links

Times and Time Zones

All times are in EDT time to prevent confusion due to time zone crossing. See the CSN3203 flight status page for this flight to view local times or setup timezone preferences in your user account.

Time Position Orientation Groundspeed Altitude Reporting Facility
EDT Latitude Longitude Course Direction KTS MPH feet Rate Location/Type
07:59PM 23.4380 113.2920 351° North 170 196 2,500  Level FlightAware
07:59PM 23.4660 113.2900 356° North 214 246 3,100 1,620 Climbing FlightAware
08:00PM 23.4930 113.2890 358° North 235 270 4,000 1,920 Climbing FlightAware
08:00PM 23.5280 113.2820 350° North 261 300 4,900 1,800 Climbing FlightAware
08:01PM 23.5540 113.2740 344° North 270 311 5,700 1,620 Climbing FlightAware
08:01PM 23.5940 113.2630 346° North 272 313 6,400 1,260 Climbing FlightAware
08:02PM 23.6300 113.2530 346° North 269 310 7,000 1,800 Climbing FlightAware
08:02PM 23.6620 113.2460 349° North 270 311 8,100 2,820 Climbing FlightAware
08:02PM 23.6800 113.2460 360° North 276 318 8,900 2,580 Climbing FlightAware
08:03PM 23.7310 113.2620 16° North 301 346 10,500 2,280 Climbing FlightAware
08:04PM 23.7960 113.2840 17° North 330 380 12,200 2,460 Climbing FlightAware
08:04PM 23.8570 113.3040 17° North 347 399 14,000 2,820 Climbing FlightAware
08:05PM 23.9210 113.3250 17° North 357 411 16,000 2,220 Climbing FlightAware
08:06PM 23.9920 113.3490 17° North 363 418 17,200 2,100 Climbing FlightAware
08:06PM 24.0570 113.3700 16° North 374 430 19,000 2,520 Climbing FlightAware
08:07PM 24.1160 113.3850 13° North 374 430 20,400 2,400 Climbing FlightAware
08:07PM 24.1490 113.3800 352° North 366 421 21,200 2,220 Climbing FlightAware
08:08PM 24.1740 113.3650 331° Northwest 365 420 21,700 780 Climbing FlightAware
08:08PM 24.2340 113.3170 324° Northwest 375 432 22,000 1,260 Climbing FlightAware
08:09PM 24.2900 113.2710 323° Northwest 380 437 23,500 2,220 Climbing FlightAware
08:10PM 24.3560 113.2170 323° Northwest 386 444 25,200 3,000 Climbing FlightAware
08:10PM 24.4090 113.1680 320° Northwest 350 403 27,800 3,600 Climbing FlightAware
08:11PM 24.4410 113.1110 302° West 322 371 30,000 1,680 Climbing FlightAware
08:12PM 24.4760 113.0480 301° West 351 404 30,200 1,380 Climbing FlightAware
08:12PM 24.5060 112.9900 300° West 333 383 32,000 2,040 Climbing FlightAware
08:13PM 24.5280 112.9130 287° West 334 384 33,100 1,440 Climbing FlightAware
08:14PM 24.5460 112.8460 286° West 333 383 34,100 720 Climbing FlightAware
08:15PM 24.5630 112.7790 286° West 349 402 34,100  Level FlightAware
08:15PM 24.5830 112.7020 286° West 365 420 34,100  Level FlightAware
08:16PM 24.6020 112.6300 286° West 367 422 34,100  Level FlightAware
08:17PM 24.6220 112.5510 286° West 368 423 34,100  Level FlightAware
08:17PM 24.6390 112.4860 286° West 368 423 34,100  Level FlightAware
08:18PM 24.6660 112.3800 286° West 368 423 34,100  Level FlightAware
08:19PM 24.6850 112.3060 286° West 367 422 34,100  Level FlightAware
08:20PM 24.7050 112.2300 286° West 367 422 34,100  Level FlightAware
08:20PM 24.7220 112.1590 285° West 367 422 34,100  Level FlightAware
08:21PM 24.7400 112.0900 286° West 366 421 34,100  Level FlightAware
08:22PM 24.7580 112.0180 285° West 366 421 34,100  Level FlightAware
08:23PM 24.7840 111.9180 286° West 364 419 34,100  Level FlightAware
08:23PM 24.8010 111.8500 285° West 365 420 34,100  Level FlightAware
08:24PM 24.8260 111.7540 286° West 362 417 34,100  Level FlightAware
08:25PM 24.8470 111.6690 285° West 361 415 34,100  Level FlightAware
08:26PM 24.8710 111.5730 285° West 362 417 34,100  Level FlightAware
08:26PM 24.8880 111.5060 286° West 362 417 34,100  Level FlightAware
08:27PM 24.9080 111.4230 285° West 362 417 34,100  Level FlightAware
08:28PM 24.9270 111.3500 286° West 363 418 34,100  Level FlightAware
08:29PM 24.9470 111.2680 285° West 363 418 34,100  Level FlightAware
08:30PM 24.9690 111.1800 285° West 363 418 34,100  Level FlightAware
08:30PM 24.9870 111.1050 285° West 363 418 34,100  Level FlightAware
08:31PM 25.0050 111.0310 285° West 363 418 34,100  Level FlightAware
08:32PM 25.0200 110.9700 285° West 363 418 34,100  Level FlightAware
08:32PM 25.0350 110.9090 285° West 363 418 34,100  Level FlightAware
08:33PM 25.0500 110.8480 285° West 363 418 34,100  Level FlightAware
08:34PM 25.0650 110.7870 285° West 363 418 34,100  Level FlightAware
08:34PM 25.0790 110.7260 284° West 363 418 34,100  Level FlightAware
08:35PM 25.0980 110.6500 285° West 363 418 34,100  Level FlightAware
08:36PM 25.1130 110.5890 285° West 363 418 34,100  Level FlightAware
08:36PM 25.1270 110.5280 284° West 363 418 34,100  Level FlightAware
08:37PM 25.1420 110.4670 285° West 363 418 34,100  Level FlightAware
08:38PM 25.1570 110.4060 285° West 363 418 34,100  Level FlightAware
08:39PM 25.1750 110.3300 285° West 363 418 34,100  Level FlightAware
08:39PM 25.1900 110.2690 285° West 363 418 34,100  Level FlightAware
08:40PM 25.2050 110.2080 285° West 363 418 34,100  Level FlightAware
08:43PM 25.4265 110.1760 353° North  Level Estimated
08:44PM 25.5134 110.1634 353° North  Level Estimated
08:45PM 25.6003 110.1508 353° North  Level Estimated
08:46PM 25.6871 110.1382 353° North  Level Estimated
08:47PM 25.7740 110.1256 353° North  Level Estimated
08:48PM 25.8609 110.1130 353° North  Level Estimated
08:49PM 25.9477 110.1003 353° North  Level Estimated
08:50PM 26.0346 110.0876 353° North  Level Estimated
08:51PM 26.1215 110.0749 353° North  Level Estimated
08:52PM 26.2083 110.0622 353° North  Level Estimated
08:53PM 26.2952 110.0494 353° North  Level Estimated
08:54PM 26.3820 110.0367 353° North  Level Estimated
08:55PM 26.4689 110.0239 352° North  Level Estimated
08:56PM 26.5557 110.0111 352° North  Level Estimated
08:57PM 26.6426 109.9983 352° North  Level Estimated
08:58PM 26.7295 109.9854 352° North  Level Estimated
08:59PM 26.8163 109.9726 352° North  Level Estimated
09:00PM 26.9032 109.9597 352° North  Level Estimated
09:01PM 26.9900 109.9468 352° North  Level Estimated
09:02PM 27.0769 109.9339 352° North  Level Estimated
09:03PM 27.1637 109.9209 352° North  Level Estimated
09:04PM 27.2506 109.9080 352° North  Level Estimated
09:05PM 27.3374 109.8950 352° North  Level Estimated
09:06PM 27.4243 109.8820 352° North  Level Estimated
09:07PM 27.5111 109.8690 352° North  Level Estimated
09:08PM 27.5979 109.8559 352° North  Level Estimated
09:09PM 27.6848 109.8429 352° North  Level Estimated
09:10PM 27.7716 109.8298 352° North  Level Estimated
09:11PM 27.8585 109.8167 352° North  Level Estimated
09:12PM 27.9453 109.8036 352° North  Level Estimated
09:13PM 28.0321 109.7904 352° North  Level Estimated
09:14PM 28.1190 109.7772 352° North  Level Estimated
09:15PM 28.2058 109.7641 352° North  Level Estimated
09:16PM 28.2926 109.7508 352° North  Level Estimated
09:17PM 28.3795 109.7376 352° North  Level Estimated
09:18PM 28.4663 109.7244 352° North  Level Estimated
09:19PM 28.5531 109.7111 352° North  Level Estimated
09:20PM 28.6400 109.6978 352° North  Level Estimated
09:21PM 28.7268 109.6845 352° North  Level Estimated
09:22PM 28.8136 109.6711 352° North  Level Estimated
09:23PM 28.9004 109.6578 352° North  Level Estimated
09:24PM 28.9873 109.6444 352° North  Level Estimated
09:25PM 29.0741 109.6310 352° North  Level Estimated
09:26PM 29.1609 109.6175 352° North  Level Estimated
09:27PM 29.2477 109.6041 352° North  Level Estimated
09:28PM 29.3345 109.5906 352° North  Level Estimated
09:29PM 29.4214 109.5771 352° North  Level Estimated
09:30PM 29.5082 109.5636 352° North  Level Estimated
09:31PM 29.5950 109.5500 352° North  Level Estimated
09:32PM 29.6818 109.5365 352° North  Level Estimated
09:33PM 29.7686 109.5229 352° North  Level Estimated
09:34PM 29.8554 109.5092 352° North  Level Estimated
09:35PM 29.9422 109.4956 352° North  Level Estimated
09:36PM 30.0290 109.4819 352° North  Level Estimated
09:37PM 30.1158 109.4683 352° North  Level Estimated
09:38PM 30.2026 109.4546 352° North  Level Estimated
09:39PM 30.2894 109.4408 352° North  Level Estimated
09:40PM 30.3762 109.4270 352° North  Level Estimated
09:41PM 30.4630 109.4133 352° North  Level Estimated
09:42PM 30.5498 109.3995 352° North  Level Estimated
09:43PM 30.6366 109.3856 352° North  Level Estimated
09:44PM 30.7234 109.3718 352° North  Level Estimated
09:45PM 30.8102 109.3579 352° North  Level Estimated
09:46PM 30.8970 109.3440 352° North  Level Estimated
09:47PM 30.9838 109.3300 352° North  Level Estimated
09:48PM 31.0706 109.3161 352° North  Level Estimated
09:49PM 31.1574 109.3021 352° North  Level Estimated
09:50PM 31.2442 109.2881 352° North  Level Estimated
09:51PM 31.3309 109.2740 352° North  Level Estimated
09:52PM 31.4177 109.2600 352° North  Level Estimated
09:53PM 31.5045 109.2459 352° North  Level Estimated
09:54PM 31.5913 109.2318 352° North  Level Estimated
09:55PM 31.6781 109.2177 352° North  Level Estimated
09:56PM 31.7648 109.2035 352° North  Level Estimated
09:57PM 31.8516 109.1893 352° North  Level Estimated
09:58PM 31.9384 109.1751 352° North  Level Estimated
09:59PM 32.0252 109.1608 352° North  Level Estimated
10:00PM 32.1119 109.1466 352° North  Level Estimated
10:01PM 32.1987 109.1322 352° North  Level Estimated
10:02PM 32.2855 109.1179 352° North  Level Estimated
10:03PM 32.3722 109.1036 352° North  Level Estimated
10:04PM 32.4590 109.0892 352° North  Level Estimated
10:05PM 32.5457 109.0748 352° North  Level Estimated
10:06PM 32.6325 109.0603 352° North  Level Estimated
10:07PM 32.7193 109.0459 352° North  Level Estimated
10:08PM 32.8060 109.0314 352° North  Level Estimated
10:09PM 32.8928 109.0168 352° North  Level Estimated
10:10PM 32.9795 109.0023 352° North  Level Estimated
10:11PM 33.0663 108.9877 352° North  Level Estimated
10:12PM 33.1530 108.9731 352° North  Level Estimated
10:13PM 33.2398 108.9585 352° North  Level Estimated
10:14PM 33.3265 108.9438 352° North  Level Estimated
10:15PM 33.4133 108.9291 352° North  Level Estimated
10:16PM 33.5000 108.9144 352° North  Level Estimated
10:17PM 33.5868 108.8996 352° North  Level Estimated
10:18PM 33.6735 108.8848 352° North  Level Estimated
10:19PM 33.7603 108.8700 352° North  Level Estimated
10:20PM 33.8470 108.8551 352° North  Level Estimated
10:21PM 33.9337 108.8403 352° North  Level Estimated
10:22PM 34.0205 108.8254 352° North  Level Estimated
10:23PM 34.1072 108.8104 352° North  Level Estimated
10:24PM 34.1939 108.7955 352° North  Level Estimated